sensor_id;sensor_type;location;lat;lon;timestamp;pressure;altitude;pressure_sealevel;temperature;humidity
45991;BME280;31721;41.740;-88.000;2023-04-27T00:02:10;99567.23;;;9.62;28.03
45991;BME280;31721;41.740;-88.000;2023-04-27T00:04:38;99569.43;;;9.68;28.34
45991;BME280;31721;41.740;-88.000;2023-04-27T00:07:06;99572.12;;;9.67;28.17
45991;BME280;31721;41.740;-88.000;2023-04-27T00:09:34;99570.12;;;9.60;28.52
45991;BME280;31721;41.740;-88.000;2023-04-27T00:12:02;99572.18;;;9.61;28.68
45991;BME280;31721;41.740;-88.000;2023-04-27T00:14:30;99572.80;;;9.37;29.12
45991;BME280;31721;41.740;-88.000;2023-04-27T00:16:58;99575.26;;;9.39;28.52
45991;BME280;31721;41.740;-88.000;2023-04-27T00:19:26;99579.41;;;9.42;28.59
45991;BME280;31721;41.740;-88.000;2023-04-27T00:21:54;99582.31;;;9.22;28.69
45991;BME280;31721;41.740;-88.000;2023-04-27T00:24:21;99580.75;;;9.23;28.67
45991;BME280;31721;41.740;-88.000;2023-04-27T00:26:49;99576.76;;;9.10;28.87
45991;BME280;31721;41.740;-88.000;2023-04-27T00:29:17;99576.47;;;9.08;29.21
45991;BME280;31721;41.740;-88.000;2023-04-27T00:31:45;99582.97;;;9.08;28.80
45991;BME280;31721;41.740;-88.000;2023-04-27T00:34:13;99582.61;;;8.90;28.86
45991;BME280;31721;41.740;-88.000;2023-04-27T00:36:40;99586.08;;;8.72;28.92
45991;BME280;31721;41.740;-88.000;2023-04-27T00:39:08;99583.66;;;8.53;29.25
45991;BME280;31721;41.740;-88.000;2023-04-27T00:41:36;99584.14;;;8.60;29.19
45991;BME280;31721;41.740;-88.000;2023-04-27T00:44:04;99587.08;;;8.69;29.49
45991;BME280;31721;41.740;-88.000;2023-04-27T00:46:33;99580.97;;;8.63;29.36
45991;BME280;31721;41.740;-88.000;2023-04-27T00:49:01;99581.68;;;8.48;29.55
45991;BME280;31721;41.740;-88.000;2023-04-27T00:51:29;99583.84;;;8.39;30.12
45991;BME280;31721;41.740;-88.000;2023-04-27T00:53:57;99583.46;;;8.38;29.99
45991;BME280;31721;41.740;-88.000;2023-04-27T00:56:26;99584.51;;;8.39;30.14
45991;BME280;31721;41.740;-88.000;2023-04-27T00:58:53;99584.22;;;8.31;30.07
45991;BME280;31721;41.740;-88.000;2023-04-27T01:01:21;99584.50;;;8.37;30.39
45991;BME280;31721;41.740;-88.000;2023-04-27T01:03:50;99588.90;;;8.32;30.44
45991;BME280;31721;41.740;-88.000;2023-04-27T01:06:18;99592.07;;;8.32;30.61
45991;BME280;31721;41.740;-88.000;2023-04-27T01:08:46;99594.24;;;8.33;30.89
45991;BME280;31721;41.740;-88.000;2023-04-27T01:11:14;99593.83;;;8.28;30.79
45991;BME280;31721;41.740;-88.000;2023-04-27T01:13:41;99586.59;;;8.25;31.04
45991;BME280;31721;41.740;-88.000;2023-04-27T01:16:09;99583.03;;;8.23;31.09
45991;BME280;31721;41.740;-88.000;2023-04-27T01:18:37;99587.23;;;8.16;31.03
45991;BME280;31721;41.740;-88.000;2023-04-27T01:21:05;99592.31;;;8.17;31.24
45991;BME280;31721;41.740;-88.000;2023-04-27T01:23:33;99596.40;;;8.10;31.22
45991;BME280;31721;41.740;-88.000;2023-04-27T01:26:01;99594.08;;;8.10;31.56
45991;BME280;31721;41.740;-88.000;2023-04-27T01:28:29;99592.44;;;8.03;31.59
45991;BME280;31721;41.740;-88.000;2023-04-27T01:30:57;99589.42;;;8.06;31.98
45991;BME280;31721;41.740;-88.000;2023-04-27T01:33:25;99589.93;;;8.03;31.93
45991;BME280;31721;41.740;-88.000;2023-04-27T01:35:53;99592.03;;;8.03;32.20
45991;BME280;31721;41.740;-88.000;2023-04-27T01:38:20;99595.28;;;8.00;32.33
45991;BME280;31721;41.740;-88.000;2023-04-27T01:40:49;99593.06;;;8.15;32.54
45991;BME280;31721;41.740;-88.000;2023-04-27T01:43:17;99591.99;;;7.97;32.73
45991;BME280;31721;41.740;-88.000;2023-04-27T01:45:45;99588.57;;;7.95;32.81
45991;BME280;31721;41.740;-88.000;2023-04-27T01:48:13;99584.47;;;8.06;33.06
45991;BME280;31721;41.740;-88.000;2023-04-27T01:50:41;99578.62;;;7.87;33.37
45991;BME280;31721;41.740;-88.000;2023-04-27T01:53:08;99577.00;;;7.91;33.41
45991;BME280;31721;41.740;-88.000;2023-04-27T01:55:37;99579.99;;;7.91;33.43
45991;BME280;31721;41.740;-88.000;2023-04-27T01:58:05;99582.22;;;7.81;33.51
45991;BME280;31721;41.740;-88.000;2023-04-27T02:00:32;99576.08;;;7.77;33.81
45991;BME280;31721;41.740;-88.000;2023-04-27T02:03:00;99569.04;;;7.74;33.82
45991;BME280;31721;41.740;-88.000;2023-04-27T02:05:29;99567.80;;;7.51;33.84
45991;BME280;31721;41.740;-88.000;2023-04-27T02:07:57;99562.68;;;7.66;33.94
45991;BME280;31721;41.740;-88.000;2023-04-27T02:10:25;99558.51;;;7.60;34.18
45991;BME280;31721;41.740;-88.000;2023-04-27T02:12:54;99565.33;;;7.43;34.23
45991;BME280;31721;41.740;-88.000;2023-04-27T02:15:22;99569.67;;;7.57;34.16
45991;BME280;31721;41.740;-88.000;2023-04-27T02:17:50;99572.25;;;7.43;34.28
45991;BME280;31721;41.740;-88.000;2023-04-27T02:20:18;99573.24;;;7.47;34.54
45991;BME280;31721;41.740;-88.000;2023-04-27T02:22:45;99571.61;;;7.40;34.45
45991;BME280;31721;41.740;-88.000;2023-04-27T02:25:13;99573.09;;;7.40;34.53
45991;BME280;31721;41.740;-88.000;2023-04-27T02:27:41;99570.07;;;7.37;34.50
45991;BME280;31721;41.740;-88.000;2023-04-27T02:30:10;99571.34;;;7.31;34.84
45991;BME280;31721;41.740;-88.000;2023-04-27T02:32:37;99567.81;;;7.27;34.76
45991;BME280;31721;41.740;-88.000;2023-04-27T02:35:06;99566.54;;;7.22;34.81
45991;BME280;31721;41.740;-88.000;2023-04-27T02:37:34;99567.38;;;7.14;34.90
45991;BME280;31721;41.740;-88.000;2023-04-27T02:40:03;99570.04;;;7.07;35.00
45991;BME280;31721;41.740;-88.000;2023-04-27T02:42:31;99573.57;;;7.04;35.14
45991;BME280;31721;41.740;-88.000;2023-04-27T02:44:58;99574.86;;;7.08;35.28
45991;BME280;31721;41.740;-88.000;2023-04-27T02:47:26;99574.77;;;7.07;35.44
45991;BME280;31721;41.740;-88.000;2023-04-27T02:49:54;99575.17;;;6.99;35.36
45991;BME280;31721;41.740;-88.000;2023-04-27T02:52:22;99574.14;;;6.91;35.35
45991;BME280;31721;41.740;-88.000;2023-04-27T02:54:50;99570.10;;;6.96;35.61
45991;BME280;31721;41.740;-88.000;2023-04-27T02:57:17;99569.50;;;6.83;35.61
45991;BME280;31721;41.740;-88.000;2023-04-27T02:59:44;99574.74;;;6.75;35.80
45991;BME280;31721;41.740;-88.000;2023-04-27T03:02:12;99575.58;;;6.84;35.93
45991;BME280;31721;41.740;-88.000;2023-04-27T03:04:40;99576.78;;;6.79;36.23
45991;BME280;31721;41.740;-88.000;2023-04-27T03:07:08;99574.31;;;6.80;36.24
45991;BME280;31721;41.740;-88.000;2023-04-27T03:09:35;99580.28;;;6.82;36.36
45991;BME280;31721;41.740;-88.000;2023-04-27T03:12:03;99579.65;;;6.72;36.51
45991;BME280;31721;41.740;-88.000;2023-04-27T03:14:31;99576.38;;;6.69;36.92
45991;BME280;31721;41.740;-88.000;2023-04-27T03:16:59;99571.97;;;6.66;36.92
45991;BME280;31721;41.740;-88.000;2023-04-27T03:19:27;99572.20;;;6.75;36.90
45991;BME280;31721;41.740;-88.000;2023-04-27T03:21:54;99577.15;;;6.72;37.14
45991;BME280;31721;41.740;-88.000;2023-04-27T03:24:22;99582.16;;;6.58;37.12
45991;BME280;31721;41.740;-88.000;2023-04-27T03:26:50;99586.12;;;6.53;37.25
45991;BME280;31721;41.740;-88.000;2023-04-27T03:29:18;99592.31;;;6.50;37.39
45991;BME280;31721;41.740;-88.000;2023-04-27T03:31:46;99593.14;;;6.46;37.39
45991;BME280;31721;41.740;-88.000;2023-04-27T03:34:13;99585.42;;;6.47;37.48
45991;BME280;31721;41.740;-88.000;2023-04-27T03:36:41;99578.15;;;6.40;37.51
45991;BME280;31721;41.740;-88.000;2023-04-27T03:39:08;99571.79;;;6.22;37.62
45991;BME280;31721;41.740;-88.000;2023-04-27T03:41:35;99566.82;;;6.29;37.97
45991;BME280;31721;41.740;-88.000;2023-04-27T03:44:03;99567.84;;;6.26;38.21
45991;BME280;31721;41.740;-88.000;2023-04-27T03:46:32;99565.89;;;6.23;38.16
45991;BME280;31721;41.740;-88.000;2023-04-27T03:49:00;99562.33;;;6.19;38.51
45991;BME280;31721;41.740;-88.000;2023-04-27T03:51:29;99561.09;;;6.02;38.31
45991;BME280;31721;41.740;-88.000;2023-04-27T03:53:57;99556.43;;;6.04;38.65
45991;BME280;31721;41.740;-88.000;2023-04-27T03:56:26;99553.55;;;6.00;38.58
45991;BME280;31721;41.740;-88.000;2023-04-27T03:58:53;99554.97;;;6.09;39.04
45991;BME280;31721;41.740;-88.000;2023-04-27T04:01:20;99563.26;;;6.03;38.91
45991;BME280;31721;41.740;-88.000;2023-04-27T04:03:48;99566.22;;;6.00;39.05
45991;BME280;31721;41.740;-88.000;2023-04-27T04:06:15;99564.97;;;5.99;39.47
45991;BME280;31721;41.740;-88.000;2023-04-27T04:08:43;99562.13;;;5.84;38.95
45991;BME280;31721;41.740;-88.000;2023-04-27T04:11:10;99563.23;;;5.96;39.58
45991;BME280;31721;41.740;-88.000;2023-04-27T04:13:38;99560.94;;;5.94;39.40
45991;BME280;31721;41.740;-88.000;2023-04-27T04:16:07;99561.34;;;5.91;39.77
45991;BME280;31721;41.740;-88.000;2023-04-27T04:18:36;99557.33;;;5.88;39.74
45991;BME280;31721;41.740;-88.000;2023-04-27T04:21:03;99555.53;;;5.84;39.62
45991;BME280;31721;41.740;-88.000;2023-04-27T04:23:31;99554.15;;;5.84;40.01
45991;BME280;31721;41.740;-88.000;2023-04-27T04:25:59;99554.81;;;5.78;40.06
45991;BME280;31721;41.740;-88.000;2023-04-27T04:28:27;99552.87;;;5.85;40.19
45991;BME280;31721;41.740;-88.000;2023-04-27T04:30:54;99553.00;;;5.78;42.23
45991;BME280;31721;41.740;-88.000;2023-04-27T04:33:22;99549.14;;;5.81;40.54
45991;BME280;31721;41.740;-88.000;2023-04-27T04:35:49;99546.55;;;5.82;40.54
45991;BME280;31721;41.740;-88.000;2023-04-27T04:38:17;99546.27;;;5.85;40.69
45991;BME280;31721;41.740;-88.000;2023-04-27T04:40:44;99546.95;;;5.83;40.87
45991;BME280;31721;41.740;-88.000;2023-04-27T04:43:12;99545.43;;;5.87;40.96
45991;BME280;31721;41.740;-88.000;2023-04-27T04:45:39;99549.85;;;5.86;41.00
45991;BME280;31721;41.740;-88.000;2023-04-27T04:48:07;99551.13;;;5.84;40.97
45991;BME280;31721;41.740;-88.000;2023-04-27T04:50:35;99549.75;;;5.86;41.15
45991;BME280;31721;41.740;-88.000;2023-04-27T04:53:02;99544.52;;;5.83;41.04
45991;BME280;31721;41.740;-88.000;2023-04-27T04:55:30;99542.52;;;5.85;41.36
45991;BME280;31721;41.740;-88.000;2023-04-27T04:57:57;99538.66;;;5.85;41.62
45991;BME280;31721;41.740;-88.000;2023-04-27T05:00:25;99536.11;;;5.83;41.57
45991;BME280;31721;41.740;-88.000;2023-04-27T05:02:52;99536.75;;;5.81;41.56
45991;BME280;31721;41.740;-88.000;2023-04-27T05:05:19;99539.51;;;5.83;41.76
45991;BME280;31721;41.740;-88.000;2023-04-27T05:07:47;99533.89;;;5.82;41.87
45991;BME280;31721;41.740;-88.000;2023-04-27T05:10:16;99529.30;;;5.86;41.85
45991;BME280;31721;41.740;-88.000;2023-04-27T05:12:44;99528.74;;;5.82;42.09
45991;BME280;31721;41.740;-88.000;2023-04-27T05:15:11;99525.92;;;5.74;41.87
45991;BME280;31721;41.740;-88.000;2023-04-27T05:17:40;99523.87;;;5.86;41.97
45991;BME280;31721;41.740;-88.000;2023-04-27T05:20:08;99522.20;;;5.67;41.92
45991;BME280;31721;41.740;-88.000;2023-04-27T05:22:35;99519.13;;;5.65;42.37
45991;BME280;31721;41.740;-88.000;2023-04-27T05:25:03;99516.59;;;5.66;42.49
45991;BME280;31721;41.740;-88.000;2023-04-27T05:27:31;99514.50;;;5.70;42.64
45991;BME280;31721;41.740;-88.000;2023-04-27T05:29:59;99512.16;;;5.58;42.70
45991;BME280;31721;41.740;-88.000;2023-04-27T05:32:27;99510.82;;;5.51;42.72
45991;BME280;31721;41.740;-88.000;2023-04-27T05:34:54;99507.12;;;5.58;42.86
45991;BME280;31721;41.740;-88.000;2023-04-27T05:37:22;99503.48;;;5.63;43.05
45991;BME280;31721;41.740;-88.000;2023-04-27T05:39:49;99501.49;;;5.61;43.12
45991;BME280;31721;41.740;-88.000;2023-04-27T05:42:17;99495.61;;;5.49;43.09
45991;BME280;31721;41.740;-88.000;2023-04-27T05:44:44;99491.04;;;5.44;43.12
45991;BME280;31721;41.740;-88.000;2023-04-27T05:47:12;99486.42;;;5.53;43.13
45991;BME280;31721;41.740;-88.000;2023-04-27T05:49:39;99485.17;;;5.51;43.33
45991;BME280;31721;41.740;-88.000;2023-04-27T05:52:07;99485.64;;;5.28;43.22
45991;BME280;31721;41.740;-88.000;2023-04-27T05:54:34;99486.84;;;5.33;43.47
45991;BME280;31721;41.740;-88.000;2023-04-27T05:57:02;99486.82;;;5.40;43.74
45991;BME280;31721;41.740;-88.000;2023-04-27T05:59:29;99483.70;;;5.35;43.72
45991;BME280;31721;41.740;-88.000;2023-04-27T06:01:57;99483.52;;;5.35;43.81
45991;BME280;31721;41.740;-88.000;2023-04-27T06:04:24;99484.83;;;5.23;43.79
45991;BME280;31721;41.740;-88.000;2023-04-27T06:06:52;99483.27;;;5.25;43.78
45991;BME280;31721;41.740;-88.000;2023-04-27T06:09:20;99477.70;;;5.18;43.72
45991;BME280;31721;41.740;-88.000;2023-04-27T06:11:47;99472.05;;;5.11;43.99
45991;BME280;31721;41.740;-88.000;2023-04-27T06:14:15;99467.92;;;5.00;43.95
45991;BME280;31721;41.740;-88.000;2023-04-27T06:16:43;99463.92;;;4.96;43.85
45991;BME280;31721;41.740;-88.000;2023-04-27T06:19:11;99460.33;;;4.82;43.89
45991;BME280;31721;41.740;-88.000;2023-04-27T06:21:38;99455.02;;;4.96;44.39
45991;BME280;31721;41.740;-88.000;2023-04-27T06:24:07;99455.85;;;4.95;44.56
45991;BME280;31721;41.740;-88.000;2023-04-27T06:26:34;99456.33;;;4.95;44.83
45991;BME280;31721;41.740;-88.000;2023-04-27T06:29:02;99454.62;;;4.94;44.79
45991;BME280;31721;41.740;-88.000;2023-04-27T06:31:30;99454.28;;;4.87;44.65
45991;BME280;31721;41.740;-88.000;2023-04-27T06:33:57;99452.96;;;4.88;44.91
45991;BME280;31721;41.740;-88.000;2023-04-27T06:36:25;99451.80;;;4.78;45.08
45991;BME280;31721;41.740;-88.000;2023-04-27T06:38:53;99452.13;;;4.84;45.24
45991;BME280;31721;41.740;-88.000;2023-04-27T06:41:21;99450.21;;;4.93;45.28
45991;BME280;31721;41.740;-88.000;2023-04-27T06:43:49;99446.47;;;4.82;45.23
45991;BME280;31721;41.740;-88.000;2023-04-27T06:46:17;99444.69;;;4.79;45.32
45991;BME280;31721;41.740;-88.000;2023-04-27T06:48:45;99442.90;;;4.77;45.52
45991;BME280;31721;41.740;-88.000;2023-04-27T06:51:13;99444.35;;;4.74;45.45
45991;BME280;31721;41.740;-88.000;2023-04-27T06:53:41;99440.50;;;4.74;45.36
45991;BME280;31721;41.740;-88.000;2023-04-27T06:56:10;99431.90;;;4.69;45.68
45991;BME280;31721;41.740;-88.000;2023-04-27T06:58:38;99428.53;;;4.75;45.84
45991;BME280;31721;41.740;-88.000;2023-04-27T07:01:06;99422.64;;;4.70;45.86
45991;BME280;31721;41.740;-88.000;2023-04-27T07:03:34;99419.58;;;4.61;45.91
45991;BME280;31721;41.740;-88.000;2023-04-27T07:06:02;99414.86;;;4.60;46.01
45991;BME280;31721;41.740;-88.000;2023-04-27T07:08:29;99414.62;;;4.66;45.99
45991;BME280;31721;41.740;-88.000;2023-04-27T07:10:57;99412.40;;;4.63;46.24
45991;BME280;31721;41.740;-88.000;2023-04-27T07:13:24;99409.68;;;4.60;46.23
45991;BME280;31721;41.740;-88.000;2023-04-27T07:15:54;99409.19;;;4.68;46.28
45991;BME280;31721;41.740;-88.000;2023-04-27T07:18:22;99407.37;;;4.62;45.97
45991;BME280;31721;41.740;-88.000;2023-04-27T07:20:49;99403.93;;;4.52;46.14
45991;BME280;31721;41.740;-88.000;2023-04-27T07:23:17;99403.56;;;4.41;46.29
45991;BME280;31721;41.740;-88.000;2023-04-27T07:25:44;99399.17;;;4.41;46.45
45991;BME280;31721;41.740;-88.000;2023-04-27T07:28:12;99394.70;;;4.51;46.54
45991;BME280;31721;41.740;-88.000;2023-04-27T07:30:40;99387.57;;;4.36;46.43
45991;BME280;31721;41.740;-88.000;2023-04-27T07:33:08;99388.94;;;4.41;46.64
45991;BME280;31721;41.740;-88.000;2023-04-27T07:35:35;99393.25;;;4.38;46.76
45991;BME280;31721;41.740;-88.000;2023-04-27T07:38:03;99394.58;;;4.37;46.86
45991;BME280;31721;41.740;-88.000;2023-04-27T07:40:31;99395.95;;;4.24;46.72
45991;BME280;31721;41.740;-88.000;2023-04-27T07:42:59;99395.96;;;4.24;46.89
45991;BME280;31721;41.740;-88.000;2023-04-27T07:45:26;99395.29;;;4.32;46.97
45991;BME280;31721;41.740;-88.000;2023-04-27T07:47:54;99390.22;;;4.27;47.16
45991;BME280;31721;41.740;-88.000;2023-04-27T07:50:22;99384.85;;;4.23;47.05
45991;BME280;31721;41.740;-88.000;2023-04-27T07:52:51;99378.53;;;4.30;47.18
45991;BME280;31721;41.740;-88.000;2023-04-27T07:55:19;99379.85;;;4.30;47.27
45991;BME280;31721;41.740;-88.000;2023-04-27T07:57:46;99382.34;;;4.17;47.07
45991;BME280;31721;41.740;-88.000;2023-04-27T08:00:14;99388.13;;;4.08;47.20
45991;BME280;31721;41.740;-88.000;2023-04-27T08:02:42;99393.39;;;4.14;47.21
45991;BME280;31721;41.740;-88.000;2023-04-27T08:05:11;99391.16;;;4.12;47.23
45991;BME280;31721;41.740;-88.000;2023-04-27T08:07:39;99388.91;;;4.09;47.28
45991;BME280;31721;41.740;-88.000;2023-04-27T08:10:07;99384.94;;;4.04;47.14
45991;BME280;31721;41.740;-88.000;2023-04-27T08:12:35;99378.24;;;4.03;47.55
45991;BME280;31721;41.740;-88.000;2023-04-27T08:15:05;99378.52;;;4.04;47.49
45991;BME280;31721;41.740;-88.000;2023-04-27T08:17:33;99381.12;;;3.95;47.63
45991;BME280;31721;41.740;-88.000;2023-04-27T08:20:01;99382.94;;;3.90;47.78
45991;BME280;31721;41.740;-88.000;2023-04-27T08:22:28;99380.99;;;3.92;47.78
45991;BME280;31721;41.740;-88.000;2023-04-27T08:24:55;99378.49;;;3.93;47.75
45991;BME280;31721;41.740;-88.000;2023-04-27T08:27:23;99374.62;;;3.92;47.70
45991;BME280;31721;41.740;-88.000;2023-04-27T08:29:51;99378.21;;;3.98;47.68
45991;BME280;31721;41.740;-88.000;2023-04-27T08:32:19;99379.86;;;3.96;47.83
45991;BME280;31721;41.740;-88.000;2023-04-27T08:34:47;99379.00;;;3.96;47.72
45991;BME280;31721;41.740;-88.000;2023-04-27T08:37:15;99380.16;;;3.98;47.87
45991;BME280;31721;41.740;-88.000;2023-04-27T08:39:43;99381.09;;;3.95;47.81
45991;BME280;31721;41.740;-88.000;2023-04-27T08:42:12;99384.07;;;3.90;47.71
45991;BME280;31721;41.740;-88.000;2023-04-27T08:44:40;99390.15;;;3.88;47.65
45991;BME280;31721;41.740;-88.000;2023-04-27T08:47:08;99388.71;;;3.72;47.62
45991;BME280;31721;41.740;-88.000;2023-04-27T08:49:37;99393.10;;;3.80;47.74
45991;BME280;31721;41.740;-88.000;2023-04-27T08:52:10;99394.12;;;3.76;47.70
45991;BME280;31721;41.740;-88.000;2023-04-27T08:54:38;99397.50;;;3.67;47.74
45991;BME280;31721;41.740;-88.000;2023-04-27T08:57:09;99396.44;;;3.70;47.71
45991;BME280;31721;41.740;-88.000;2023-04-27T08:59:37;99397.97;;;3.68;47.79
45991;BME280;31721;41.740;-88.000;2023-04-27T09:02:05;99401.17;;;3.69;47.99
45991;BME280;31721;41.740;-88.000;2023-04-27T09:04:36;99400.11;;;3.68;47.99
45991;BME280;31721;41.740;-88.000;2023-04-27T09:07:12;99405.09;;;3.73;47.94
45991;BME280;31721;41.740;-88.000;2023-04-27T09:09:40;99404.09;;;3.59;48.05
45991;BME280;31721;41.740;-88.000;2023-04-27T09:12:17;99401.04;;;3.57;48.05
45991;BME280;31721;41.740;-88.000;2023-04-27T09:14:55;99404.90;;;3.51;48.02
45991;BME280;31721;41.740;-88.000;2023-04-27T09:17:25;99416.16;;;3.49;48.06
45991;BME280;31721;41.740;-88.000;2023-04-27T09:20:03;99419.59;;;3.50;48.17
45991;BME280;31721;41.740;-88.000;2023-04-27T09:22:40;99416.96;;;3.51;48.18
45991;BME280;31721;41.740;-88.000;2023-04-27T09:25:08;99411.55;;;3.58;48.19
45991;BME280;31721;41.740;-88.000;2023-04-27T09:27:37;99410.36;;;3.43;48.14
45991;BME280;31721;41.740;-88.000;2023-04-27T09:30:12;99411.92;;;3.42;48.17
45991;BME280;31721;41.740;-88.000;2023-04-27T09:32:50;99415.50;;;3.39;48.20
45991;BME280;31721;41.740;-88.000;2023-04-27T09:35:21;99406.11;;;3.33;48.17
45991;BME280;31721;41.740;-88.000;2023-04-27T09:37:49;99399.04;;;3.49;48.40
45991;BME280;31721;41.740;-88.000;2023-04-27T09:40:18;99390.09;;;3.36;48.34
45991;BME280;31721;41.740;-88.000;2023-04-27T09:42:46;99380.93;;;3.49;48.35
45991;BME280;31721;41.740;-88.000;2023-04-27T09:45:14;99373.96;;;3.27;48.28
45991;BME280;31721;41.740;-88.000;2023-04-27T09:47:43;99376.12;;;3.41;48.26
45991;BME280;31721;41.740;-88.000;2023-04-27T09:50:12;99374.88;;;3.24;48.46
45991;BME280;31721;41.740;-88.000;2023-04-27T09:52:40;99371.78;;;3.24;48.48
45991;BME280;31721;41.740;-88.000;2023-04-27T09:55:09;99373.70;;;3.23;48.47
45991;BME280;31721;41.740;-88.000;2023-04-27T09:57:52;99369.99;;;3.40;48.43
45991;BME280;31721;41.740;-88.000;2023-04-27T10:00:40;99367.02;;;3.32;48.32
45991;BME280;31721;41.740;-88.000;2023-04-27T10:03:18;99366.56;;;3.19;48.19
45991;BME280;31721;41.740;-88.000;2023-04-27T10:07:07;99374.73;;;3.16;48.09
45991;BME280;31721;41.740;-88.000;2023-04-27T10:09:39;99375.42;;;3.17;48.20
45991;BME280;31721;41.740;-88.000;2023-04-27T10:12:16;99372.23;;;3.28;48.13
45991;BME280;31721;41.740;-88.000;2023-04-27T10:14:49;99369.85;;;3.22;47.97
45991;BME280;31721;41.740;-88.000;2023-04-27T10:17:19;99367.76;;;3.08;48.04
45991;BME280;31721;41.740;-88.000;2023-04-27T10:19:55;99358.55;;;3.17;48.13
45991;BME280;31721;41.740;-88.000;2023-04-27T10:22:23;99351.30;;;3.03;48.15
45991;BME280;31721;41.740;-88.000;2023-04-27T10:24:51;99344.76;;;3.22;48.25
45991;BME280;31721;41.740;-88.000;2023-04-27T10:27:19;99342.62;;;3.12;48.17
45991;BME280;31721;41.740;-88.000;2023-04-27T10:29:47;99338.24;;;3.15;48.09
45991;BME280;31721;41.740;-88.000;2023-04-27T10:32:20;99329.12;;;2.98;48.06
45991;BME280;31721;41.740;-88.000;2023-04-27T10:34:48;99326.11;;;3.07;48.14
45991;BME280;31721;41.740;-88.000;2023-04-27T10:37:16;99328.88;;;3.14;48.04
45991;BME280;31721;41.740;-88.000;2023-04-27T10:39:45;99325.32;;;2.94;47.99
45991;BME280;31721;41.740;-88.000;2023-04-27T10:42:13;99320.26;;;3.01;48.09
45991;BME280;31721;41.740;-88.000;2023-04-27T10:44:41;99322.05;;;2.95;47.87
45991;BME280;31721;41.740;-88.000;2023-04-27T10:47:14;99326.47;;;2.96;47.92
45991;BME280;31721;41.740;-88.000;2023-04-27T10:49:42;99330.94;;;2.90;47.69
45991;BME280;31721;41.740;-88.000;2023-04-27T10:52:10;99330.45;;;2.91;47.91
45991;BME280;31721;41.740;-88.000;2023-04-27T10:54:38;99326.69;;;2.93;48.12
45991;BME280;31721;41.740;-88.000;2023-04-27T10:57:06;99324.06;;;3.00;48.16
45991;BME280;31721;41.740;-88.000;2023-04-27T10:59:45;99322.02;;;3.02;47.95
45991;BME280;31721;41.740;-88.000;2023-04-27T11:02:13;99324.00;;;2.98;47.75
45991;BME280;31721;41.740;-88.000;2023-04-27T11:04:41;99322.59;;;2.89;47.52
45991;BME280;31721;41.740;-88.000;2023-04-27T11:07:09;99317.64;;;2.88;47.68
45991;BME280;31721;41.740;-88.000;2023-04-27T11:09:38;99315.77;;;2.96;47.66
45991;BME280;31721;41.740;-88.000;2023-04-27T11:12:12;99317.37;;;2.97;47.69
45991;BME280;31721;41.740;-88.000;2023-04-27T11:14:39;99312.93;;;2.95;48.09
45991;BME280;31721;41.740;-88.000;2023-04-27T11:17:07;99313.64;;;2.90;48.15
45991;BME280;31721;41.740;-88.000;2023-04-27T11:19:44;99313.85;;;2.91;48.13
45991;BME280;31721;41.740;-88.000;2023-04-27T11:22:14;99310.75;;;2.95;48.21
45991;BME280;31721;41.740;-88.000;2023-04-27T11:24:46;99309.46;;;2.95;48.28
45991;BME280;31721;41.740;-88.000;2023-04-27T11:27:15;99299.14;;;2.87;48.29
45991;BME280;31721;41.740;-88.000;2023-04-27T11:29:43;99297.19;;;2.90;48.49
45991;BME280;31721;41.740;-88.000;2023-04-27T11:32:18;99292.34;;;2.87;48.22
45991;BME280;31721;41.740;-88.000;2023-04-27T11:34:49;99285.49;;;2.97;48.43
45991;BME280;31721;41.740;-88.000;2023-04-27T11:37:21;99285.41;;;3.00;48.36
45991;BME280;31721;41.740;-88.000;2023-04-27T11:39:50;99281.72;;;3.07;48.70
45991;BME280;31721;41.740;-88.000;2023-04-27T11:42:20;99282.22;;;3.23;48.95
45991;BME280;31721;41.740;-88.000;2023-04-27T11:44:52;99284.32;;;3.29;48.69
45991;BME280;31721;41.740;-88.000;2023-04-27T11:47:20;99285.82;;;3.42;48.46
45991;BME280;31721;41.740;-88.000;2023-04-27T11:49:49;99286.58;;;3.57;48.69
45991;BME280;31721;41.740;-88.000;2023-04-27T11:52:17;99294.12;;;3.64;48.61
45991;BME280;31721;41.740;-88.000;2023-04-27T11:54:47;99296.32;;;3.67;48.02
45991;BME280;31721;41.740;-88.000;2023-04-27T11:57:16;99298.11;;;3.80;47.84
45991;BME280;31721;41.740;-88.000;2023-04-27T11:59:44;99303.13;;;3.91;47.84
45991;BME280;31721;41.740;-88.000;2023-04-27T12:02:11;99298.46;;;4.01;47.77
45991;BME280;31721;41.740;-88.000;2023-04-27T12:04:39;99298.85;;;4.22;47.77
45991;BME280;31721;41.740;-88.000;2023-04-27T12:07:07;99302.03;;;4.32;47.49
45991;BME280;31721;41.740;-88.000;2023-04-27T12:09:36;99305.97;;;4.37;47.50
45991;BME280;31721;41.740;-88.000;2023-04-27T12:12:04;99303.04;;;4.62;47.07
45991;BME280;31721;41.740;-88.000;2023-04-27T12:14:32;99302.63;;;4.71;46.40
45991;BME280;31721;41.740;-88.000;2023-04-27T12:17:01;99303.51;;;4.85;46.33
45991;BME280;31721;41.740;-88.000;2023-04-27T12:19:29;99302.67;;;4.77;45.92
45991;BME280;31721;41.740;-88.000;2023-04-27T12:21:58;99303.41;;;4.93;45.88
45991;BME280;31721;41.740;-88.000;2023-04-27T12:24:26;99300.08;;;5.06;45.58
45991;BME280;31721;41.740;-88.000;2023-04-27T12:26:54;99297.83;;;5.09;45.66
45991;BME280;31721;41.740;-88.000;2023-04-27T12:29:23;99294.91;;;5.32;45.57
45991;BME280;31721;41.740;-88.000;2023-04-27T12:31:51;99293.34;;;5.47;45.08
45991;BME280;31721;41.740;-88.000;2023-04-27T12:34:19;99291.82;;;5.44;44.88
45991;BME280;31721;41.740;-88.000;2023-04-27T12:36:48;99292.85;;;5.58;45.08
45991;BME280;31721;41.740;-88.000;2023-04-27T12:39:17;99287.80;;;5.63;44.75
45991;BME280;31721;41.740;-88.000;2023-04-27T12:41:46;99283.74;;;5.84;44.86
45991;BME280;31721;41.740;-88.000;2023-04-27T12:44:15;99278.07;;;6.12;44.71
45991;BME280;31721;41.740;-88.000;2023-04-27T12:46:45;99269.08;;;6.23;44.67
45991;BME280;31721;41.740;-88.000;2023-04-27T12:49:13;99267.02;;;6.35;44.42
45991;BME280;31721;41.740;-88.000;2023-04-27T12:51:42;99268.56;;;6.57;44.61
45991;BME280;31721;41.740;-88.000;2023-04-27T12:54:10;99269.47;;;6.71;44.69
45991;BME280;31721;41.740;-88.000;2023-04-27T12:56:38;99260.83;;;6.84;44.18
45991;BME280;31721;41.740;-88.000;2023-04-27T12:59:06;99257.77;;;6.92;43.85